sensor_id;sensor_type;location;lat;lon;timestamp;pressure;altitude;pressure_sealevel;temperature;humidity
17060;BME280;8646;49.716;9.266;2023-11-21T00:03:00;99608.06;;;10.58;98.19
17060;BME280;8646;49.716;9.266;2023-11-21T00:06:04;99604.41;;;10.59;97.98
17060;BME280;8646;49.716;9.266;2023-11-21T00:09:10;99609.75;;;10.61;97.99
17060;BME280;8646;49.716;9.266;2023-11-21T00:12:14;99608.00;;;10.60;98.18
17060;BME280;8646;49.716;9.266;2023-11-21T00:15:17;99603.69;;;10.56;98.35
17060;BME280;8646;49.716;9.266;2023-11-21T00:18:22;99616.03;;;10.61;97.42
17060;BME280;8646;49.716;9.266;2023-11-21T00:21:25;99615.25;;;10.59;97.47
17060;BME280;8646;49.716;9.266;2023-11-21T00:24:27;99615.31;;;10.58;97.62
17060;BME280;8646;49.716;9.266;2023-11-21T00:27:30;99570.91;;;10.29;98.42
17060;BME280;8646;49.716;9.266;2023-11-21T00:30:33;99621.59;;;10.58;98.28
17060;BME280;8646;49.716;9.266;2023-11-21T00:33:37;99618.09;;;10.56;98.62
17060;BME280;8646;49.716;9.266;2023-11-21T00:36:40;99609.75;;;10.61;98.30
17060;BME280;8646;49.716;9.266;2023-11-21T00:39:43;99618.75;;;10.61;98.42
17060;BME280;8646;49.716;9.266;2023-11-21T00:42:46;99612.72;;;10.72;97.33
17060;BME280;8646;49.716;9.266;2023-11-21T00:45:49;99605.50;;;10.73;96.80
17060;BME280;8646;49.716;9.266;2023-11-21T00:48:54;99602.59;;;10.60;97.55
17060;BME280;8646;49.716;9.266;2023-11-21T00:51:57;99605.91;;;10.65;97.60
17060;BME280;8646;49.716;9.266;2023-11-21T00:55:00;99609.19;;;10.54;98.14
17060;BME280;8646;49.716;9.266;2023-11-21T00:58:04;99607.28;;;10.39;99.51
17060;BME280;8646;49.716;9.266;2023-11-21T01:01:08;99613.31;;;10.28;100.00
17060;BME280;8646;49.716;9.266;2023-11-21T01:04:12;99610.66;;;10.27;100.00
17060;BME280;8646;49.716;9.266;2023-11-21T01:07:16;99624.88;;;10.13;100.00
17060;BME280;8646;49.716;9.266;2023-11-21T01:10:19;99612.72;;;10.22;100.00
17060;BME280;8646;49.716;9.266;2023-11-21T01:13:22;99611.69;;;10.24;100.00
17060;BME280;8646;49.716;9.266;2023-11-21T01:16:25;99617.44;;;10.18;100.00
17060;BME280;8646;49.716;9.266;2023-11-21T01:19:30;99619.47;;;10.13;100.00
17060;BME280;8646;49.716;9.266;2023-11-21T01:22:33;99622.25;;;10.12;100.00
17060;BME280;8646;49.716;9.266;2023-11-21T01:25:37;99627.81;;;10.09;100.00
17060;BME280;8646;49.716;9.266;2023-11-21T01:28:39;99629.50;;;10.11;100.00
17060;BME280;8646;49.716;9.266;2023-11-21T01:31:42;99625.81;;;9.95;100.00
17060;BME280;8646;49.716;9.266;2023-11-21T01:34:47;99570.88;;;9.60;100.00
17060;BME280;8646;49.716;9.266;2023-11-21T01:37:50;99639.00;;;9.84;100.00
17060;BME280;8646;49.716;9.266;2023-11-21T01:40:53;99641.88;;;9.81;100.00
17060;BME280;8646;49.716;9.266;2023-11-21T01:43:56;99635.47;;;9.82;100.00
17060;BME280;8646;49.716;9.266;2023-11-21T01:46:59;99640.25;;;9.77;100.00
17060;BME280;8646;49.716;9.266;2023-11-21T01:50:09;99634.84;;;9.77;100.00
17060;BME280;8646;49.716;9.266;2023-11-21T01:53:15;99639.38;;;9.76;100.00
17060;BME280;8646;49.716;9.266;2023-11-21T01:56:18;99641.22;;;9.76;100.00
17060;BME280;8646;49.716;9.266;2023-11-21T01:59:22;99638.88;;;9.68;100.00
17060;BME280;8646;49.716;9.266;2023-11-21T02:02:25;99642.53;;;9.67;100.00
17060;BME280;8646;49.716;9.266;2023-11-21T02:05:29;99649.00;;;9.65;100.00
17060;BME280;8646;49.716;9.266;2023-11-21T02:08:33;99646.34;;;9.63;100.00
17060;BME280;8646;49.716;9.266;2023-11-21T02:11:36;99643.00;;;9.58;100.00
17060;BME280;8646;49.716;9.266;2023-11-21T02:14:40;99642.41;;;9.51;100.00
17060;BME280;8646;49.716;9.266;2023-11-21T02:17:43;99642.41;;;9.51;100.00
17060;BME280;8646;49.716;9.266;2023-11-21T02:20:47;99636.06;;;9.52;100.00
17060;BME280;8646;49.716;9.266;2023-11-21T02:23:52;99648.44;;;9.39;100.00
17060;BME280;8646;49.716;9.266;2023-11-21T02:26:54;99647.25;;;9.45;100.00
17060;BME280;8646;49.716;9.266;2023-11-21T02:29:57;99647.00;;;9.49;100.00
17060;BME280;8646;49.716;9.266;2023-11-21T02:33:02;99642.59;;;9.48;100.00
17060;BME280;8646;49.716;9.266;2023-11-21T02:36:05;99640.97;;;9.44;100.00
17060;BME280;8646;49.716;9.266;2023-11-21T02:39:10;99635.56;;;9.44;100.00
17060;BME280;8646;49.716;9.266;2023-11-21T02:42:13;99643.59;;;9.46;100.00
17060;BME280;8646;49.716;9.266;2023-11-21T02:45:17;99634.56;;;9.47;100.00
17060;BME280;8646;49.716;9.266;2023-11-21T02:48:20;99640.66;;;9.50;100.00
17060;BME280;8646;49.716;9.266;2023-11-21T02:51:25;99648.13;;;9.45;100.00
17060;BME280;8646;49.716;9.266;2023-11-21T02:54:29;99639.97;;;9.47;100.00
17060;BME280;8646;49.716;9.266;2023-11-21T02:57:32;99641.84;;;9.45;100.00
17060;BME280;8646;49.716;9.266;2023-11-21T03:00:36;99640.47;;;9.36;100.00
17060;BME280;8646;49.716;9.266;2023-11-21T03:03:39;99634.69;;;9.44;100.00
17060;BME280;8646;49.716;9.266;2023-11-21T03:06:43;99641.41;;;9.35;100.00
17060;BME280;8646;49.716;9.266;2023-11-21T03:09:48;99645.38;;;9.28;100.00
17060;BME280;8646;49.716;9.266;2023-11-21T03:12:51;99642.66;;;9.28;100.00
17060;BME280;8646;49.716;9.266;2023-11-21T03:15:54;99639.66;;;9.34;100.00
17060;BME280;8646;49.716;9.266;2023-11-21T03:18:57;99635.72;;;9.41;100.00
17060;BME280;8646;49.716;9.266;2023-11-21T03:22:00;99640.59;;;9.52;100.00
17060;BME280;8646;49.716;9.266;2023-11-21T03:25:06;99644.31;;;9.49;100.00
17060;BME280;8646;49.716;9.266;2023-11-21T03:28:12;99644.03;;;9.55;100.00
17060;BME280;8646;49.716;9.266;2023-11-21T03:31:15;99636.72;;;9.57;100.00
17060;BME280;8646;49.716;9.266;2023-11-21T03:34:23;99635.75;;;9.58;100.00
17060;BME280;8646;49.716;9.266;2023-11-21T03:37:27;99638.00;;;9.68;100.00
17060;BME280;8646;49.716;9.266;2023-11-21T03:40:31;99641.84;;;9.64;100.00
17060;BME280;8646;49.716;9.266;2023-11-21T03:43:34;99641.72;;;9.65;100.00
17060;BME280;8646;49.716;9.266;2023-11-21T03:46:37;99640.22;;;9.60;100.00
17060;BME280;8646;49.716;9.266;2023-11-21T03:49:40;99647.81;;;9.51;100.00
17060;BME280;8646;49.716;9.266;2023-11-21T03:52:43;99651.63;;;9.47;100.00
17060;BME280;8646;49.716;9.266;2023-11-21T03:55:47;99648.69;;;9.52;100.00
17060;BME280;8646;49.716;9.266;2023-11-21T03:58:51;99658.19;;;9.42;100.00
17060;BME280;8646;49.716;9.266;2023-11-21T04:01:55;99653.66;;;9.42;100.00
17060;BME280;8646;49.716;9.266;2023-11-21T04:04:58;99654.53;;;9.43;100.00
17060;BME280;8646;49.716;9.266;2023-11-21T04:08:01;99659.38;;;9.36;100.00
17060;BME280;8646;49.716;9.266;2023-11-21T04:11:05;99605.91;;;9.07;100.00
17060;BME280;8646;49.716;9.266;2023-11-21T04:14:08;99665.06;;;9.30;100.00
17060;BME280;8646;49.716;9.266;2023-11-21T04:17:11;99666.84;;;9.31;100.00
17060;BME280;8646;49.716;9.266;2023-11-21T04:20:14;99638.81;;;9.15;100.00
17060;BME280;8646;49.716;9.266;2023-11-21T04:23:18;99673.00;;;9.33;100.00
17060;BME280;8646;49.716;9.266;2023-11-21T04:26:23;99671.41;;;9.29;100.00
17060;BME280;8646;49.716;9.266;2023-11-21T04:29:26;99674.94;;;9.31;100.00
17060;BME280;8646;49.716;9.266;2023-11-21T04:32:29;99678.50;;;9.32;100.00
17060;BME280;8646;49.716;9.266;2023-11-21T04:35:31;99679.28;;;9.34;100.00
17060;BME280;8646;49.716;9.266;2023-11-21T04:38:34;99682.66;;;9.20;100.00
17060;BME280;8646;49.716;9.266;2023-11-21T04:41:38;99688.44;;;9.31;100.00
17060;BME280;8646;49.716;9.266;2023-11-21T04:44:41;99688.00;;;9.40;100.00
17060;BME280;8646;49.716;9.266;2023-11-21T04:47:45;99688.84;;;9.41;100.00
17060;BME280;8646;49.716;9.266;2023-11-21T04:50:48;99689.00;;;9.38;100.00
17060;BME280;8646;49.716;9.266;2023-11-21T04:53:51;99690.25;;;9.31;100.00
17060;BME280;8646;49.716;9.266;2023-11-21T04:56:55;99623.41;;;8.98;100.00
17060;BME280;8646;49.716;9.266;2023-11-21T04:59:58;99687.63;;;9.29;100.00
17060;BME280;8646;49.716;9.266;2023-11-21T05:03:01;99694.78;;;9.30;100.00
17060;BME280;8646;49.716;9.266;2023-11-21T05:06:05;99696.53;;;9.31;100.00
17060;BME280;8646;49.716;9.266;2023-11-21T05:09:09;99699.38;;;9.28;100.00
17060;BME280;8646;49.716;9.266;2023-11-21T05:12:15;99705.50;;;9.32;100.00
17060;BME280;8646;49.716;9.266;2023-11-21T05:15:18;99712.78;;;9.30;100.00
17060;BME280;8646;49.716;9.266;2023-11-21T05:18:20;99702.88;;;9.30;100.00
17060;BME280;8646;49.716;9.266;2023-11-21T05:21:24;99711.78;;;9.32;100.00
17060;BME280;8646;49.716;9.266;2023-11-21T05:24:27;99707.34;;;9.31;100.00
17060;BME280;8646;49.716;9.266;2023-11-21T05:27:31;99719.66;;;9.37;100.00
17060;BME280;8646;49.716;9.266;2023-11-21T05:30:34;99707.09;;;9.36;100.00
17060;BME280;8646;49.716;9.266;2023-11-21T05:33:38;99727.75;;;9.37;100.00
17060;BME280;8646;49.716;9.266;2023-11-21T05:36:42;99727.13;;;9.32;100.00
17060;BME280;8646;49.716;9.266;2023-11-21T05:39:45;99730.59;;;9.34;100.00
17060;BME280;8646;49.716;9.266;2023-11-21T05:42:50;99733.22;;;9.35;100.00
17060;BME280;8646;49.716;9.266;2023-11-21T05:45:53;99724.47;;;9.30;100.00
17060;BME280;8646;49.716;9.266;2023-11-21T05:48:56;99743.72;;;9.41;100.00
17060;BME280;8646;49.716;9.266;2023-11-21T05:52:00;99749.06;;;9.43;100.00
17060;BME280;8646;49.716;9.266;2023-11-21T05:55:04;99737.69;;;9.36;100.00
17060;BME280;8646;49.716;9.266;2023-11-21T05:58:10;99750.75;;;9.45;100.00
17060;BME280;8646;49.716;9.266;2023-11-21T06:01:12;99761.44;;;9.48;100.00
17060;BME280;8646;49.716;9.266;2023-11-21T06:04:15;99764.25;;;9.45;100.00
17060;BME280;8646;49.716;9.266;2023-11-21T06:07:20;99774.13;;;9.46;100.00
17060;BME280;8646;49.716;9.266;2023-11-21T06:10:23;99783.97;;;9.47;100.00
17060;BME280;8646;49.716;9.266;2023-11-21T06:13:28;99779.53;;;9.46;100.00
17060;BME280;8646;49.716;9.266;2023-11-21T06:16:32;99781.63;;;9.40;100.00
17060;BME280;8646;49.716;9.266;2023-11-21T06:19:34;99781.53;;;9.41;100.00
17060;BME280;8646;49.716;9.266;2023-11-21T06:22:38;99790.63;;;9.40;100.00
17060;BME280;8646;49.716;9.266;2023-11-21T06:25:41;99787.41;;;9.51;100.00
17060;BME280;8646;49.716;9.266;2023-11-21T06:28:45;99794.97;;;9.43;100.00
17060;BME280;8646;49.716;9.266;2023-11-21T06:31:48;99794.31;;;9.38;100.00
17060;BME280;8646;49.716;9.266;2023-11-21T06:34:51;99791.56;;;9.39;100.00
17060;BME280;8646;49.716;9.266;2023-11-21T06:37:56;99793.56;;;9.34;100.00
17060;BME280;8646;49.716;9.266;2023-11-21T06:40:59;99791.63;;;9.38;100.00
17060;BME280;8646;49.716;9.266;2023-11-21T06:44:05;99788.34;;;9.31;100.00
17060;BME280;8646;49.716;9.266;2023-11-21T06:47:10;99804.13;;;9.40;100.00
17060;BME280;8646;49.716;9.266;2023-11-21T06:50:13;99815.63;;;9.44;100.00
17060;BME280;8646;49.716;9.266;2023-11-21T06:53:16;99820.44;;;9.37;100.00
17060;BME280;8646;49.716;9.266;2023-11-21T06:56:19;99809.00;;;9.32;100.00
17060;BME280;8646;49.716;9.266;2023-11-21T06:59:24;99816.81;;;9.38;100.00
17060;BME280;8646;49.716;9.266;2023-11-21T07:02:27;99782.81;;;9.14;100.00
17060;BME280;8646;49.716;9.266;2023-11-21T07:05:30;99828.25;;;9.43;100.00
17060;BME280;8646;49.716;9.266;2023-11-21T07:08:33;99830.97;;;9.43;100.00
17060;BME280;8646;49.716;9.266;2023-11-21T07:11:36;99833.59;;;9.45;100.00
17060;BME280;8646;49.716;9.266;2023-11-21T07:14:44;99849.00;;;9.43;100.00
17060;BME280;8646;49.716;9.266;2023-11-21T07:17:47;99849.06;;;9.41;100.00
17060;BME280;8646;49.716;9.266;2023-11-21T07:20:50;99832.59;;;9.27;100.00
17060;BME280;8646;49.716;9.266;2023-11-21T07:23:53;99857.69;;;9.49;100.00
17060;BME280;8646;49.716;9.266;2023-11-21T07:26:56;99840.59;;;9.30;100.00
17060;BME280;8646;49.716;9.266;2023-11-21T07:30:01;99874.88;;;9.48;100.00
17060;BME280;8646;49.716;9.266;2023-11-21T07:33:06;99884.50;;;9.54;100.00
17060;BME280;8646;49.716;9.266;2023-11-21T07:36:09;99879.81;;;9.57;100.00
17060;BME280;8646;49.716;9.266;2023-11-21T07:39:12;99872.59;;;9.58;100.00
17060;BME280;8646;49.716;9.266;2023-11-21T07:42:17;99881.31;;;9.65;100.00
17060;BME280;8646;49.716;9.266;2023-11-21T07:45:21;99889.19;;;9.69;100.00
17060;BME280;8646;49.716;9.266;2023-11-21T07:48:24;99884.56;;;9.73;100.00
17060;BME280;8646;49.716;9.266;2023-11-21T07:51:28;99896.66;;;9.83;100.00
17060;BME280;8646;49.716;9.266;2023-11-21T07:54:30;99893.06;;;9.82;100.00
17060;BME280;8646;49.716;9.266;2023-11-21T07:57:33;99893.19;;;9.81;100.00
17060;BME280;8646;49.716;9.266;2023-11-21T08:00:37;99907.75;;;9.77;100.00
17060;BME280;8646;49.716;9.266;2023-11-21T08:03:41;99894.31;;;9.75;100.00
17060;BME280;8646;49.716;9.266;2023-11-21T08:06:45;99915.44;;;9.86;100.00
17060;BME280;8646;49.716;9.266;2023-11-21T08:09:48;99913.63;;;9.86;100.00
17060;BME280;8646;49.716;9.266;2023-11-21T08:12:51;99916.09;;;9.91;100.00
17060;BME280;8646;49.716;9.266;2023-11-21T08:15:56;99918.09;;;10.06;100.00
17060;BME280;8646;49.716;9.266;2023-11-21T08:19:03;99915.25;;;10.09;100.00
17060;BME280;8646;49.716;9.266;2023-11-21T08:22:07;99922.13;;;10.16;100.00
17060;BME280;8646;49.716;9.266;2023-11-21T08:25:11;99919.09;;;10.24;100.00
17060;BME280;8646;49.716;9.266;2023-11-21T08:28:14;99912.53;;;10.29;100.00
17060;BME280;8646;49.716;9.266;2023-11-21T08:31:24;99924.44;;;10.25;100.00
17060;BME280;8646;49.716;9.266;2023-11-21T08:34:27;99918.44;;;10.38;100.00
17060;BME280;8646;49.716;9.266;2023-11-21T08:37:31;99909.84;;;10.47;100.00
17060;BME280;8646;49.716;9.266;2023-11-21T08:40:34;99922.88;;;10.57;100.00
17060;BME280;8646;49.716;9.266;2023-11-21T08:43:37;99934.44;;;10.61;100.00
17060;BME280;8646;49.716;9.266;2023-11-21T08:46:43;99930.28;;;10.71;100.00
17060;BME280;8646;49.716;9.266;2023-11-21T08:49:46;99929.84;;;10.80;100.00
17060;BME280;8646;49.716;9.266;2023-11-21T08:52:49;99908.66;;;10.71;100.00
17060;BME280;8646;49.716;9.266;2023-11-21T08:55:52;99938.53;;;10.87;100.00
17060;BME280;8646;49.716;9.266;2023-11-21T08:58:56;99937.91;;;10.82;100.00
17060;BME280;8646;49.716;9.266;2023-11-21T09:02:01;99938.91;;;10.79;100.00
17060;BME280;8646;49.716;9.266;2023-11-21T09:05:04;99951.50;;;10.80;100.00
17060;BME280;8646;49.716;9.266;2023-11-21T09:08:08;99950.22;;;10.70;100.00
17060;BME280;8646;49.716;9.266;2023-11-21T09:11:11;99956.59;;;10.69;100.00
17060;BME280;8646;49.716;9.266;2023-11-21T09:14:14;99959.13;;;10.72;100.00
17060;BME280;8646;49.716;9.266;2023-11-21T09:17:19;99963.63;;;10.90;100.00
17060;BME280;8646;49.716;9.266;2023-11-21T09:20:22;99967.34;;;10.88;100.00
17060;BME280;8646;49.716;9.266;2023-11-21T09:23:25;99965.00;;;10.99;100.00
17060;BME280;8646;49.716;9.266;2023-11-21T09:26:28;99970.78;;;11.10;100.00
17060;BME280;8646;49.716;9.266;2023-11-21T09:29:31;99949.00;;;10.94;100.00
17060;BME280;8646;49.716;9.266;2023-11-21T09:32:36;99978.09;;;11.08;100.00
17060;BME280;8646;49.716;9.266;2023-11-21T09:35:39;99989.81;;;11.08;100.00
17060;BME280;8646;49.716;9.266;2023-11-21T09:38:42;99990.81;;;11.06;100.00
17060;BME280;8646;49.716;9.266;2023-11-21T09:41:49;99995.84;;;11.14;100.00
17060;BME280;8646;49.716;9.266;2023-11-21T09:45:00;99997.38;;;11.19;100.00
17060;BME280;8646;49.716;9.266;2023-11-21T09:48:08;99999.72;;;11.27;100.00
17060;BME280;8646;49.716;9.266;2023-11-21T09:51:13;100000.66;;;11.26;100.00
17060;BME280;8646;49.716;9.266;2023-11-21T09:54:17;100004.47;;;11.22;100.00
17060;BME280;8646;49.716;9.266;2023-11-21T09:57:24;100010.84;;;11.21;100.00
17060;BME280;8646;49.716;9.266;2023-11-21T10:00:27;100005.59;;;11.18;100.00
17060;BME280;8646;49.716;9.266;2023-11-21T10:03:31;100003.66;;;11.20;100.00
17060;BME280;8646;49.716;9.266;2023-11-21T10:06:38;100007.19;;;11.22;100.00
17060;BME280;8646;49.716;9.266;2023-11-21T10:09:43;100007.66;;;11.30;100.00
17060;BME280;8646;49.716;9.266;2023-11-21T10:12:49;100009.34;;;11.32;100.00
17060;BME280;8646;49.716;9.266;2023-11-21T10:15:55;100011.19;;;11.32;100.00
17060;BME280;8646;49.716;9.266;2023-11-21T10:18:59;99999.84;;;11.24;100.00
17060;BME280;8646;49.716;9.266;2023-11-21T10:22:12;100009.44;;;11.48;100.00
17060;BME280;8646;49.716;9.266;2023-11-21T10:25:16;100010.88;;;11.55;100.00
17060;BME280;8646;49.716;9.266;2023-11-21T10:28:22;100019.97;;;11.54;99.67
17060;BME280;8646;49.716;9.266;2023-11-21T10:31:26;100016.06;;;11.60;99.10
17060;BME280;8646;49.716;9.266;2023-11-21T10:34:31;100018.94;;;11.57;98.54
17060;BME280;8646;49.716;9.266;2023-11-21T10:37:35;99999.25;;;11.70;95.95
17060;BME280;8646;49.716;9.266;2023-11-21T10:40:41;99965.13;;;11.32;97.21
17060;BME280;8646;49.716;9.266;2023-11-21T10:43:46;99977.06;;;11.45;97.09
17060;BME280;8646;49.716;9.266;2023-11-21T10:46:50;100003.38;;;11.60;97.45
17060;BME280;8646;49.716;9.266;2023-11-21T10:49:55;100014.53;;;11.54;97.42
17060;BME280;8646;49.716;9.266;2023-11-21T10:52:58;100016.31;;;11.55;97.70
17060;BME280;8646;49.716;9.266;2023-11-21T10:56:05;100022.28;;;11.62;96.91
17060;BME280;8646;49.716;9.266;2023-11-21T10:59:10;100019.16;;;11.69;97.24
17060;BME280;8646;49.716;9.266;2023-11-21T11:02:22;99997.47;;;11.69;96.28
17060;BME280;8646;49.716;9.266;2023-11-21T11:05:29;100021.28;;;11.81;95.69
17060;BME280;8646;49.716;9.266;2023-11-21T11:08:34;100020.41;;;11.81;95.15
17060;BME280;8646;49.716;9.266;2023-11-21T11:11:39;100024.16;;;11.78;95.41
17060;BME280;8646;49.716;9.266;2023-11-21T11:14:42;100033.53;;;11.71;96.00
17060;BME280;8646;49.716;9.266;2023-11-21T11:17:46;100021.44;;;11.78;95.23
17060;BME280;8646;49.716;9.266;2023-11-21T11:20:53;100033.84;;;11.65;97.24
17060;BME280;8646;49.716;9.266;2023-11-21T11:24:13;100026.38;;;11.88;95.88
17060;BME280;8646;49.716;9.266;2023-11-21T11:27:25;100021.28;;;11.81;94.22
17060;BME280;8646;49.716;9.266;2023-11-21T11:30:45;100024.81;;;11.83;94.08
17060;BME280;8646;49.716;9.266;2023-11-21T11:33:54;100031.63;;;11.73;96.11
17060;BME280;8646;49.716;9.266;2023-11-21T11:37:02;100029.91;;;11.90;95.79
17060;BME280;8646;49.716;9.266;2023-11-21T11:40:07;100011.06;;;11.87;96.71
17060;BME280;8646;49.716;9.266;2023-11-21T11:43:11;100037.69;;;12.13;98.22
17060;BME280;8646;49.716;9.266;2023-11-21T11:46:14;100041.06;;;12.34;98.38
17060;BME280;8646;49.716;9.266;2023-11-21T11:49:23;100032.94;;;12.49;99.51
17060;BME280;8646;49.716;9.266;2023-11-21T11:52:39;100031.00;;;12.69;99.14
17060;BME280;8646;49.716;9.266;2023-11-21T11:55:43;100002.34;;;12.63;98.42
17060;BME280;8646;49.716;9.266;2023-11-21T11:58:47;100024.78;;;12.82;98.67
17060;BME280;8646;49.716;9.266;2023-11-21T12:01:50;100026.88;;;12.77;98.52
17060;BME280;8646;49.716;9.266;2023-11-21T12:04:55;100031.34;;;12.63;98.38
17060;BME280;8646;49.716;9.266;2023-11-21T12:08:01;100038.94;;;12.56;99.58
17060;BME280;8646;49.716;9.266;2023-11-21T12:11:05;100044.53;;;12.53;99.96
17060;BME280;8646;49.716;9.266;2023-11-21T12:14:09;100043.13;;;12.46;99.82
17060;BME280;8646;49.716;9.266;2023-11-21T12:17:12;100060.63;;;12.40;100.00
17060;BME280;8646;49.716;9.266;2023-11-21T12:20:18;100032.22;;;12.30;100.00
17060;BME280;8646;49.716;9.266;2023-11-21T12:23:22;100056.38;;;12.35;100.00
17060;BME280;8646;49.716;9.266;2023-11-21T12:26:26;100060.06;;;12.34;100.00
17060;BME280;8646;49.716;9.266;2023-11-21T12:29:29;100051.50;;;12.41;100.00
17060;BME280;8646;49.716;9.266;2023-11-21T12:32:34;100053.03;;;12.47;100.00
17060;BME280;8646;49.716;9.266;2023-11-21T12:35:39;100056.13;;;12.56;100.00
17060;BME280;8646;49.716;9.266;2023-11-21T12:38:43;100057.34;;;12.67;100.00
17060;BME280;8646;49.716;9.266;2023-11-21T12:41:46;100055.25;;;12.72;100.00
17060;BME280;8646;49.716;9.266;2023-11-21T12:45:06;100057.97;;;12.72;100.00
17060;BME280;8646;49.716;9.266;2023-11-21T12:48:09;100034.56;;;12.53;100.00
17060;BME280;8646;49.716;9.266;2023-11-21T12:51:13;100060.56;;;12.73;100.00
17060;BME280;8646;49.716;9.266;2023-11-21T12:54:19;100064.91;;;12.77;100.00
17060;BME280;8646;49.716;9.266;2023-11-21T12:57:25;100076.47;;;12.81;100.00
17060;BME280;8646;49.716;9.266;2023-11-21T13:00:32;100075.78;;;12.93;100.00
17060;BME280;8646;49.716;9.266;2023-11-21T13:03:38;100076.81;;;13.06;100.00
17060;BME280;8646;49.716;9.266;2023-11-21T13:06:42;100073.63;;;13.15;100.00
17060;BME280;8646;49.716;9.266;2023-11-21T13:09:46;100077.41;;;13.28;98.56
17060;BME280;8646;49.716;9.266;2023-11-21T13:12:51;100067.50;;;13.27;92.38
17060;BME280;8646;49.716;9.266;2023-11-21T13:15:55;99992.88;;;12.54;90.66
17060;BME280;8646;49.716;9.266;2023-11-21T13:18:58;100026.47;;;12.36;93.44
17060;BME280;8646;49.716;9.266;2023-11-21T13:22:01;100045.56;;;12.50;92.24
17060;BME280;8646;49.716;9.266;2023-11-21T13:25:07;100076.19;;;12.37;92.00
17060;BME280;8646;49.716;9.266;2023-11-21T13:28:11;100083.31;;;12.22;94.06
17060;BME280;8646;49.716;9.266;2023-11-21T13:31:16;100084.41;;;12.18;95.09
17060;BME280;8646;49.716;9.266;2023-11-21T13:34:28;100082.97;;;12.28;94.18
17060;BME280;8646;49.716;9.266;2023-11-21T13:37:35;100084.41;;;12.18;94.58
17060;BME280;8646;49.716;9.266;2023-11-21T13:40:40;100084.75;;;12.12;94.67
17060;BME280;8646;49.716;9.266;2023-11-21T13:43:46;100092.25;;;12.07;95.29
17060;BME280;8646;49.716;9.266;2023-11-21T13:46:55;100083.00;;;12.11;93.74
17060;BME280;8646;49.716;9.266;2023-11-21T13:50:00;100085.16;;;12.04;93.36
17060;BME280;8646;49.716;9.266;2023-11-21T13:53:04;100084.59;;;11.98;94.03
17060;BME280;8646;49.716;9.266;2023-11-21T13:56:19;100104.53;;;11.97;94.43
17060;BME280;8646;49.716;9.266;2023-11-21T13:59:26;99947.06;;;10.96;94.63
17060;BME280;8646;49.716;9.266;2023-11-21T14:02:31;100115.31;;;11.98;94.52
17060;BME280;8646;49.716;9.266;2023-11-21T14:05:41;100116.59;;;11.91;92.95
17060;BME280;8646;49.716;9.266;2023-11-21T14:08:44;100120.53;;;11.84;94.41
17060;BME280;8646;49.716;9.266;2023-11-21T14:11:52;100122.78;;;11.93;92.32
17060;BME280;8646;49.716;9.266;2023-11-21T14:14:55;100127.22;;;11.77;94.16
17060;BME280;8646;49.716;9.266;2023-11-21T14:17:58;100123.19;;;11.85;92.77
17060;BME280;8646;49.716;9.266;2023-11-21T14:21:02;100125.41;;;11.77;92.88
17060;BME280;8646;49.716;9.266;2023-11-21T14:24:07;100132.88;;;11.72;93.30
17060;BME280;8646;49.716;9.266;2023-11-21T14:27:12;100133.81;;;11.71;92.97
17060;BME280;8646;49.716;9.266;2023-11-21T14:30:18;100145.06;;;11.64;93.41
17060;BME280;8646;49.716;9.266;2023-11-21T14:33:24;100140.00;;;11.56;93.72
17060;BME280;8646;49.716;9.266;2023-11-21T14:36:28;100126.19;;;11.43;93.94
17060;BME280;8646;49.716;9.266;2023-11-21T14:39:31;100148.53;;;11.48;94.87
17060;BME280;8646;49.716;9.266;2023-11-21T14:42:43;100135.91;;;11.47;93.71
17060;BME280;8646;49.716;9.266;2023-11-21T14:45:49;100158.56;;;11.46;94.78
17060;BME280;8646;49.716;9.266;2023-11-21T14:48:52;100157.66;;;11.46;94.40
17060;BME280;8646;49.716;9.266;2023-11-21T14:52:09;100142.91;;;11.34;94.60
17060;BME280;8646;49.716;9.266;2023-11-21T14:55:28;100154.63;;;11.35;94.20
17060;BME280;8646;49.716;9.266;2023-11-21T14:58:42;100170.38;;;11.27;95.20
17060;BME280;8646;49.716;9.266;2023-11-21T15:01:45;100168.81;;;11.21;95.80
17060;BME280;8646;49.716;9.266;2023-11-21T15:04:56;100173.06;;;11.27;95.45
17060;BME280;8646;49.716;9.266;2023-11-21T15:08:04;100163.75;;;11.14;95.37
17060;BME280;8646;49.716;9.266;2023-11-21T15:11:22;100173.72;;;11.13;94.02
17060;BME280;8646;49.716;9.266;2023-11-21T15:14:33;100207.59;;;11.03;95.26
17060;BME280;8646;49.716;9.266;2023-11-21T15:17:37;100203.03;;;11.03;95.65
17060;BME280;8646;49.716;9.266;2023-11-21T15:20:45;100205.09;;;10.98;96.08
17060;BME280;8646;49.716;9.266;2023-11-21T15:23:48;100192.66;;;10.94;95.25
17060;BME280;8646;49.716;9.266;2023-11-21T15:26:51;100202.69;;;10.92;95.12
17060;BME280;8646;49.716;9.266;2023-11-21T15:29:55;100202.22;;;10.83;95.76
17060;BME280;8646;49.716;9.266;2023-11-21T15:32:59;100214.59;;;10.88;94.95
17060;BME280;8646;49.716;9.266;2023-11-21T15:36:02;100222.88;;;10.85;95.43
17060;BME280;8646;49.716;9.266;2023-11-21T15:39:06;100184.72;;;10.51;96.21
17060;BME280;8646;49.716;9.266;2023-11-21T15:42:11;100231.25;;;10.79;96.37
17060;BME280;8646;49.716;9.266;2023-11-21T15:45:16;100227.88;;;10.74;96.21
17060;BME280;8646;49.716;9.266;2023-11-21T15:48:22;100243.28;;;10.72;96.88
17060;BME280;8646;49.716;9.266;2023-11-21T15:51:25;100238.41;;;10.80;96.16
17060;BME280;8646;49.716;9.266;2023-11-21T15:54:28;100242.34;;;10.73;96.87
17060;BME280;8646;49.716;9.266;2023-11-21T15:57:32;100246.81;;;10.74;97.23
17060;BME280;8646;49.716;9.266;2023-11-21T16:00:36;100239.66;;;10.73;97.25
17060;BME280;8646;49.716;9.266;2023-11-21T16:03:39;100246.59;;;10.79;97.54
17060;BME280;8646;49.716;9.266;2023-11-21T16:06:42;100245.19;;;10.90;95.76
17060;BME280;8646;49.716;9.266;2023-11-21T16:09:45;100244.94;;;10.76;96.41
17060;BME280;8646;49.716;9.266;2023-11-21T16:12:47;100244.25;;;10.71;96.85
17060;BME280;8646;49.716;9.266;2023-11-21T16:15:51;100260.34;;;10.74;97.39
17060;BME280;8646;49.716;9.266;2023-11-21T16:18:55;100267.66;;;10.72;97.80
17060;BME280;8646;49.716;9.266;2023-11-21T16:21:58;100267.13;;;10.84;95.50
17060;BME280;8646;49.716;9.266;2023-11-21T16:25:03;100271.31;;;10.71;97.02